Golmud, China
Current Conditions -  °F | °C
As of 12:00 AM on Tuesday 23 Dec 2014 (Local Time) from ZLLL Reporting Station
Smoke Smoke  
Wind Chill:   Ceiling: Unl
Heat Index: 16°   Visibility: 2.3mi
Dew Point:   Wind: 4mph
Humidity: 62%   Direction: 360°N
Pressure: 30.15"   Gusts: NA
Location:  36.42°N, 94.9°E
Report Text: ZLLL 221600Z 36002MPS 3800 FU NSC M09/M15 Q1021 NOSIG
Loading
Personal Weather Stations






























Interactive Weather Map New forecast layout! Learn more

10-Day Weather Forecast

Advertisements
Track Severe Weather on mobile